sensor_id;sensor_type;location;lat;lon;timestamp;P1;durP1;ratioP1;P2;durP2;ratioP2
33421;SDS011;19763;55.798;37.782;2023-05-07T00:02:04;9.80;;;5.78;;
33421;SDS011;19763;55.798;37.782;2023-05-07T00:04:29;8.45;;;5.85;;
33421;SDS011;19763;55.798;37.782;2023-05-07T00:09:27;9.32;;;6.13;;
33421;SDS011;19763;55.798;37.782;2023-05-07T00:11:52;7.38;;;5.30;;
33421;SDS011;19763;55.798;37.782;2023-05-07T00:14:18;7.82;;;6.22;;
33421;SDS011;19763;55.798;37.782;2023-05-07T00:16:43;9.65;;;6.18;;
33421;SDS011;19763;55.798;37.782;2023-05-07T00:19:09;7.72;;;6.18;;
33421;SDS011;19763;55.798;37.782;2023-05-07T00:21:35;10.73;;;5.90;;
33421;SDS011;19763;55.798;37.782;2023-05-07T00:24:00;11.70;;;6.07;;
33421;SDS011;19763;55.798;37.782;2023-05-07T00:26:26;9.38;;;6.15;;
33421;SDS011;19763;55.798;37.782;2023-05-07T00:28:51;12.32;;;5.88;;
33421;SDS011;19763;55.798;37.782;2023-05-07T00:31:17;8.38;;;5.63;;
33421;SDS011;19763;55.798;37.782;2023-05-07T00:33:43;14.25;;;6.93;;
33421;SDS011;19763;55.798;37.782;2023-05-07T00:36:08;9.18;;;6.05;;
33421;SDS011;19763;55.798;37.782;2023-05-07T00:38:34;9.27;;;6.43;;
33421;SDS011;19763;55.798;37.782;2023-05-07T00:41:00;9.40;;;5.90;;
33421;SDS011;19763;55.798;37.782;2023-05-07T00:43:27;9.63;;;6.18;;
33421;SDS011;19763;55.798;37.782;2023-05-07T00:45:52;12.13;;;6.55;;
33421;SDS011;19763;55.798;37.782;2023-05-07T00:48:18;15.13;;;6.50;;
33421;SDS011;19763;55.798;37.782;2023-05-07T00:50:44;10.55;;;5.72;;
33421;SDS011;19763;55.798;37.782;2023-05-07T00:53:11;9.35;;;5.97;;
33421;SDS011;19763;55.798;37.782;2023-05-07T00:55:37;7.75;;;6.03;;
33421;SDS011;19763;55.798;37.782;2023-05-07T00:58:03;10.60;;;5.63;;
33421;SDS011;19763;55.798;37.782;2023-05-07T01:00:29;11.52;;;6.45;;
33421;SDS011;19763;55.798;37.782;2023-05-07T01:02:54;7.88;;;5.70;;
33421;SDS011;19763;55.798;37.782;2023-05-07T01:05:20;9.45;;;6.10;;
33421;SDS011;19763;55.798;37.782;2023-05-07T01:07:48;9.07;;;6.68;;
33421;SDS011;19763;55.798;37.782;2023-05-07T01:10:16;9.38;;;6.13;;
33421;SDS011;19763;55.798;37.782;2023-05-07T01:12:43;8.40;;;5.25;;
33421;SDS011;19763;55.798;37.782;2023-05-07T01:15:10;8.63;;;5.60;;
33421;SDS011;19763;55.798;37.782;2023-05-07T01:17:39;9.77;;;6.30;;
33421;SDS011;19763;55.798;37.782;2023-05-07T01:20:07;9.65;;;5.97;;
33421;SDS011;19763;55.798;37.782;2023-05-07T01:22:35;8.93;;;5.97;;
33421;SDS011;19763;55.798;37.782;2023-05-07T01:25:04;9.45;;;5.85;;
33421;SDS011;19763;55.798;37.782;2023-05-07T01:27:32;7.38;;;5.05;;
33421;SDS011;19763;55.798;37.782;2023-05-07T01:29:59;6.32;;;4.90;;
33421;SDS011;19763;55.798;37.782;2023-05-07T01:32:35;6.18;;;4.85;;
33421;SDS011;19763;55.798;37.782;2023-05-07T01:35:02;10.82;;;5.70;;
33421;SDS011;19763;55.798;37.782;2023-05-07T01:37:32;8.45;;;4.93;;
33421;SDS011;19763;55.798;37.782;2023-05-07T01:39:58;7.65;;;5.10;;
33421;SDS011;19763;55.798;37.782;2023-05-07T01:42:25;5.43;;;4.75;;
33421;SDS011;19763;55.798;37.782;2023-05-07T01:44:51;5.00;;;4.43;;
33421;SDS011;19763;55.798;37.782;2023-05-07T01:47:17;6.90;;;4.63;;
33421;SDS011;19763;55.798;37.782;2023-05-07T01:49:43;8.57;;;3.92;;
33421;SDS011;19763;55.798;37.782;2023-05-07T01:52:10;5.05;;;4.03;;
33421;SDS011;19763;55.798;37.782;2023-05-07T01:54:36;7.80;;;5.05;;
33421;SDS011;19763;55.798;37.782;2023-05-07T01:57:02;9.63;;;4.40;;
33421;SDS011;19763;55.798;37.782;2023-05-07T01:59:28;7.40;;;5.03;;
33421;SDS011;19763;55.798;37.782;2023-05-07T02:01:53;8.10;;;5.03;;
33421;SDS011;19763;55.798;37.782;2023-05-07T02:04:19;7.85;;;5.20;;
33421;SDS011;19763;55.798;37.782;2023-05-07T02:06:44;7.68;;;4.50;;
33421;SDS011;19763;55.798;37.782;2023-05-07T02:09:10;8.05;;;4.82;;
33421;SDS011;19763;55.798;37.782;2023-05-07T02:11:36;8.35;;;5.05;;
33421;SDS011;19763;55.798;37.782;2023-05-07T02:14:01;11.02;;;5.20;;
33421;SDS011;19763;55.798;37.782;2023-05-07T02:16:27;8.13;;;5.25;;
33421;SDS011;19763;55.798;37.782;2023-05-07T02:18:53;11.65;;;5.32;;
33421;SDS011;19763;55.798;37.782;2023-05-07T02:21:18;10.32;;;5.28;;
33421;SDS011;19763;55.798;37.782;2023-05-07T02:23:44;8.13;;;5.03;;
33421;SDS011;19763;55.798;37.782;2023-05-07T02:26:10;8.07;;;4.93;;
33421;SDS011;19763;55.798;37.782;2023-05-07T02:28:36;10.43;;;4.72;;
33421;SDS011;19763;55.798;37.782;2023-05-07T02:31:02;7.63;;;4.72;;
33421;SDS011;19763;55.798;37.782;2023-05-07T02:33:30;8.18;;;4.57;;
33421;SDS011;19763;55.798;37.782;2023-05-07T02:35:56;6.43;;;4.28;;
33421;SDS011;19763;55.798;37.782;2023-05-07T02:38:22;7.13;;;5.07;;
33421;SDS011;19763;55.798;37.782;2023-05-07T02:40:48;7.05;;;4.40;;
33421;SDS011;19763;55.798;37.782;2023-05-07T02:43:13;6.38;;;4.53;;
33421;SDS011;19763;55.798;37.782;2023-05-07T02:45:39;6.43;;;4.30;;
33421;SDS011;19763;55.798;37.782;2023-05-07T02:48:05;9.93;;;4.72;;
33421;SDS011;19763;55.798;37.782;2023-05-07T02:50:31;9.65;;;4.78;;
33421;SDS011;19763;55.798;37.782;2023-05-07T02:52:57;7.00;;;4.80;;
33421;SDS011;19763;55.798;37.782;2023-05-07T02:55:23;7.95;;;4.68;;
33421;SDS011;19763;55.798;37.782;2023-05-07T02:57:49;8.75;;;4.95;;
33421;SDS011;19763;55.798;37.782;2023-05-07T03:00:15;4.95;;;4.45;;
33421;SDS011;19763;55.798;37.782;2023-05-07T03:02:43;6.25;;;4.47;;
33421;SDS011;19763;55.798;37.782;2023-05-07T03:05:11;4.63;;;4.18;;
33421;SDS011;19763;55.798;37.782;2023-05-07T03:07:37;4.55;;;4.15;;
33421;SDS011;19763;55.798;37.782;2023-05-07T03:10:03;5.75;;;4.03;;
33421;SDS011;19763;55.798;37.782;2023-05-07T03:12:30;6.75;;;4.63;;
33421;SDS011;19763;55.798;37.782;2023-05-07T03:14:56;5.53;;;4.38;;
33421;SDS011;19763;55.798;37.782;2023-05-07T03:17:22;4.18;;;3.75;;
33421;SDS011;19763;55.798;37.782;2023-05-07T03:19:47;5.05;;;3.95;;
33421;SDS011;19763;55.798;37.782;2023-05-07T03:22:13;5.72;;;4.10;;
33421;SDS011;19763;55.798;37.782;2023-05-07T03:24:39;6.15;;;4.18;;
33421;SDS011;19763;55.798;37.782;2023-05-07T03:27:05;5.88;;;4.03;;
33421;SDS011;19763;55.798;37.782;2023-05-07T03:29:30;7.00;;;4.72;;
33421;SDS011;19763;55.798;37.782;2023-05-07T03:31:56;5.28;;;4.43;;
33421;SDS011;19763;55.798;37.782;2023-05-07T03:34:22;8.88;;;4.57;;
33421;SDS011;19763;55.798;37.782;2023-05-07T03:36:50;6.20;;;4.50;;
33421;SDS011;19763;55.798;37.782;2023-05-07T03:39:16;6.75;;;4.32;;
33421;SDS011;19763;55.798;37.782;2023-05-07T03:41:42;7.88;;;4.40;;
33421;SDS011;19763;55.798;37.782;2023-05-07T03:44:07;7.82;;;4.32;;
33421;SDS011;19763;55.798;37.782;2023-05-07T03:46:33;5.82;;;4.38;;
33421;SDS011;19763;55.798;37.782;2023-05-07T03:48:59;8.48;;;4.50;;
33421;SDS011;19763;55.798;37.782;2023-05-07T03:51:25;7.15;;;3.80;;
33421;SDS011;19763;55.798;37.782;2023-05-07T03:53:50;7.57;;;4.00;;
33421;SDS011;19763;55.798;37.782;2023-05-07T03:56:18;4.13;;;3.50;;
33421;SDS011;19763;55.798;37.782;2023-05-07T03:58:44;5.07;;;3.67;;
33421;SDS011;19763;55.798;37.782;2023-05-07T04:01:10;4.80;;;3.30;;
33421;SDS011;19763;55.798;37.782;2023-05-07T04:03:36;5.35;;;3.38;;
33421;SDS011;19763;55.798;37.782;2023-05-07T04:06:02;3.75;;;3.30;;
33421;SDS011;19763;55.798;37.782;2023-05-07T04:08:27;3.83;;;3.00;;
33421;SDS011;19763;55.798;37.782;2023-05-07T04:10:56;4.40;;;3.50;;
33421;SDS011;19763;55.798;37.782;2023-05-07T04:13:22;5.53;;;3.30;;
33421;SDS011;19763;55.798;37.782;2023-05-07T04:15:48;5.25;;;3.33;;
33421;SDS011;19763;55.798;37.782;2023-05-07T04:18:14;4.28;;;3.10;;
33421;SDS011;19763;55.798;37.782;2023-05-07T04:20:40;5.75;;;3.15;;
33421;SDS011;19763;55.798;37.782;2023-05-07T04:23:06;8.38;;;3.28;;
33421;SDS011;19763;55.798;37.782;2023-05-07T04:25:32;4.05;;;2.70;;
33421;SDS011;19763;55.798;37.782;2023-05-07T04:27:58;4.22;;;2.75;;
33421;SDS011;19763;55.798;37.782;2023-05-07T04:30:24;3.25;;;2.60;;
33421;SDS011;19763;55.798;37.782;2023-05-07T04:32:50;4.18;;;2.75;;
33421;SDS011;19763;55.798;37.782;2023-05-07T04:35:15;3.70;;;2.40;;
33421;SDS011;19763;55.798;37.782;2023-05-07T04:37:41;4.10;;;2.83;;
33421;SDS011;19763;55.798;37.782;2023-05-07T04:40:07;4.97;;;2.50;;
33421;SDS011;19763;55.798;37.782;2023-05-07T04:42:33;4.05;;;2.80;;
33421;SDS011;19763;55.798;37.782;2023-05-07T04:44:58;4.15;;;2.50;;
33421;SDS011;19763;55.798;37.782;2023-05-07T04:47:25;3.45;;;2.50;;
33421;SDS011;19763;55.798;37.782;2023-05-07T04:49:50;2.70;;;2.50;;
33421;SDS011;19763;55.798;37.782;2023-05-07T04:52:16;3.50;;;2.30;;
33421;SDS011;19763;55.798;37.782;2023-05-07T04:54:41;2.88;;;2.53;;
33421;SDS011;19763;55.798;37.782;2023-05-07T04:57:07;3.50;;;2.50;;
33421;SDS011;19763;55.798;37.782;2023-05-07T04:59:33;5.13;;;4.00;;
33421;SDS011;19763;55.798;37.782;2023-05-07T05:01:58;5.82;;;2.95;;
33421;SDS011;19763;55.798;37.782;2023-05-07T05:04:24;2.60;;;2.40;;
33421;SDS011;19763;55.798;37.782;2023-05-07T05:06:49;4.60;;;3.00;;
33421;SDS011;19763;55.798;37.782;2023-05-07T05:09:15;3.88;;;2.40;;
33421;SDS011;19763;55.798;37.782;2023-05-07T05:11:41;3.38;;;2.28;;
33421;SDS011;19763;55.798;37.782;2023-05-07T05:14:07;3.30;;;2.30;;
33421;SDS011;19763;55.798;37.782;2023-05-07T05:16:32;5.68;;;2.45;;
33421;SDS011;19763;55.798;37.782;2023-05-07T05:18:58;3.05;;;2.72;;
33421;SDS011;19763;55.798;37.782;2023-05-07T05:21:24;3.92;;;2.72;;
33421;SDS011;19763;55.798;37.782;2023-05-07T05:23:50;4.68;;;2.30;;
33421;SDS011;19763;55.798;37.782;2023-05-07T05:26:16;3.72;;;2.80;;
33421;SDS011;19763;55.798;37.782;2023-05-07T05:28:41;3.80;;;2.50;;
33421;SDS011;19763;55.798;37.782;2023-05-07T05:31:07;6.03;;;2.60;;
33421;SDS011;19763;55.798;37.782;2023-05-07T05:33:33;3.75;;;1.58;;
33421;SDS011;19763;55.798;37.782;2023-05-07T05:35:58;2.00;;;1.70;;
33421;SDS011;19763;55.798;37.782;2023-05-07T05:38:24;2.63;;;1.70;;
33421;SDS011;19763;55.798;37.782;2023-05-07T05:40:50;2.40;;;1.70;;
33421;SDS011;19763;55.798;37.782;2023-05-07T05:43:16;1.73;;;1.45;;
33421;SDS011;19763;55.798;37.782;2023-05-07T05:45:42;4.10;;;1.90;;
33421;SDS011;19763;55.798;37.782;2023-05-07T05:48:07;1.45;;;1.35;;
33421;SDS011;19763;55.798;37.782;2023-05-07T05:50:33;3.55;;;2.00;;
33421;SDS011;19763;55.798;37.782;2023-05-07T05:53:01;2.15;;;1.90;;
33421;SDS011;19763;55.798;37.782;2023-05-07T05:55:27;3.00;;;1.80;;
33421;SDS011;19763;55.798;37.782;2023-05-07T05:57:53;3.70;;;1.67;;
33421;SDS011;19763;55.798;37.782;2023-05-07T06:00:18;2.53;;;1.55;;
33421;SDS011;19763;55.798;37.782;2023-05-07T06:02:47;4.90;;;1.85;;
33421;SDS011;19763;55.798;37.782;2023-05-07T06:05:13;2.00;;;1.83;;
33421;SDS011;19763;55.798;37.782;2023-05-07T06:07:39;1.73;;;1.63;;
33421;SDS011;19763;55.798;37.782;2023-05-07T06:10:04;3.35;;;2.30;;
33421;SDS011;19763;55.798;37.782;2023-05-07T06:12:30;2.42;;;1.90;;
33421;SDS011;19763;55.798;37.782;2023-05-07T06:14:56;3.22;;;1.70;;
33421;SDS011;19763;55.798;37.782;2023-05-07T06:17:22;3.70;;;1.50;;
33421;SDS011;19763;55.798;37.782;2023-05-07T06:19:47;3.63;;;1.48;;
33421;SDS011;19763;55.798;37.782;2023-05-07T06:22:13;3.75;;;2.28;;
33421;SDS011;19763;55.798;37.782;2023-05-07T06:24:39;1.60;;;1.35;;
33421;SDS011;19763;55.798;37.782;2023-05-07T06:27:04;4.35;;;1.60;;
33421;SDS011;19763;55.798;37.782;2023-05-07T06:29:30;2.55;;;1.50;;
33421;SDS011;19763;55.798;37.782;2023-05-07T06:32:05;1.50;;;1.40;;
33421;SDS011;19763;55.798;37.782;2023-05-07T06:34:32;2.45;;;1.55;;
33421;SDS011;19763;55.798;37.782;2023-05-07T06:36:58;2.08;;;1.40;;
33421;SDS011;19763;55.798;37.782;2023-05-07T06:39:23;2.05;;;1.60;;
33421;SDS011;19763;55.798;37.782;2023-05-07T06:41:49;2.10;;;1.40;;
33421;SDS011;19763;55.798;37.782;2023-05-07T06:44:14;1.35;;;1.25;;
33421;SDS011;19763;55.798;37.782;2023-05-07T06:46:40;2.95;;;1.45;;
33421;SDS011;19763;55.798;37.782;2023-05-07T06:49:06;1.42;;;1.33;;
33421;SDS011;19763;55.798;37.782;2023-05-07T06:51:32;1.40;;;1.30;;
33421;SDS011;19763;55.798;37.782;2023-05-07T06:53:58;2.72;;;2.10;;
33421;SDS011;19763;55.798;37.782;2023-05-07T06:56:23;3.88;;;1.63;;
33421;SDS011;19763;55.798;37.782;2023-05-07T06:58:50;2.63;;;1.50;;
33421;SDS011;19763;55.798;37.782;2023-05-07T07:01:15;2.50;;;1.73;;
33421;SDS011;19763;55.798;37.782;2023-05-07T07:03:41;4.50;;;2.03;;
33421;SDS011;19763;55.798;37.782;2023-05-07T07:06:07;3.33;;;2.47;;
33421;SDS011;19763;55.798;37.782;2023-05-07T07:08:32;2.80;;;1.60;;
33421;SDS011;19763;55.798;37.782;2023-05-07T07:10:58;3.40;;;1.48;;
33421;SDS011;19763;55.798;37.782;2023-05-07T07:13:24;2.80;;;1.27;;
33421;SDS011;19763;55.798;37.782;2023-05-07T07:15:49;4.95;;;1.60;;
33421;SDS011;19763;55.798;37.782;2023-05-07T07:18:15;2.78;;;1.45;;
33421;SDS011;19763;55.798;37.782;2023-05-07T07:20:40;4.15;;;1.80;;
33421;SDS011;19763;55.798;37.782;2023-05-07T07:23:06;3.28;;;1.70;;
33421;SDS011;19763;55.798;37.782;2023-05-07T07:25:32;2.03;;;1.33;;
33421;SDS011;19763;55.798;37.782;2023-05-07T07:27:57;2.80;;;1.90;;
33421;SDS011;19763;55.798;37.782;2023-05-07T07:30:23;4.65;;;1.63;;
33421;SDS011;19763;55.798;37.782;2023-05-07T07:32:49;4.88;;;1.63;;
33421;SDS011;19763;55.798;37.782;2023-05-07T07:35:14;2.92;;;1.60;;
33421;SDS011;19763;55.798;37.782;2023-05-07T07:37:40;2.08;;;1.85;;
33421;SDS011;19763;55.798;37.782;2023-05-07T07:40:06;2.28;;;1.70;;
33421;SDS011;19763;55.798;37.782;2023-05-07T07:42:32;3.42;;;1.73;;
33421;SDS011;19763;55.798;37.782;2023-05-07T07:44:57;1.60;;;1.38;;
33421;SDS011;19763;55.798;37.782;2023-05-07T07:47:23;2.08;;;1.40;;
33421;SDS011;19763;55.798;37.782;2023-05-07T07:49:48;1.88;;;1.20;;
33421;SDS011;19763;55.798;37.782;2023-05-07T07:52:14;10.88;;;1.67;;
33421;SDS011;19763;55.798;37.782;2023-05-07T07:54:40;2.42;;;1.30;;
33421;SDS011;19763;55.798;37.782;2023-05-07T07:57:06;2.40;;;1.23;;
33421;SDS011;19763;55.798;37.782;2023-05-07T07:59:31;2.67;;;1.20;;
33421;SDS011;19763;55.798;37.782;2023-05-07T08:01:57;1.63;;;1.30;;
33421;SDS011;19763;55.798;37.782;2023-05-07T08:04:22;1.45;;;1.35;;
33421;SDS011;19763;55.798;37.782;2023-05-07T08:06:48;1.50;;;1.20;;
33421;SDS011;19763;55.798;37.782;2023-05-07T08:09:14;2.05;;;1.30;;
33421;SDS011;19763;55.798;37.782;2023-05-07T08:11:39;3.10;;;1.38;;
33421;SDS011;19763;55.798;37.782;2023-05-07T08:14:05;4.13;;;1.50;;
33421;SDS011;19763;55.798;37.782;2023-05-07T08:16:30;1.58;;;1.40;;
33421;SDS011;19763;55.798;37.782;2023-05-07T08:18:56;1.75;;;1.55;;
33421;SDS011;19763;55.798;37.782;2023-05-07T08:21:22;1.75;;;1.60;;
33421;SDS011;19763;55.798;37.782;2023-05-07T08:23:48;4.32;;;1.60;;
33421;SDS011;19763;55.798;37.782;2023-05-07T08:26:14;2.60;;;1.60;;
33421;SDS011;19763;55.798;37.782;2023-05-07T08:28:40;2.88;;;1.40;;
33421;SDS011;19763;55.798;37.782;2023-05-07T08:31:05;2.58;;;1.20;;
33421;SDS011;19763;55.798;37.782;2023-05-07T08:33:31;2.30;;;2.10;;
33421;SDS011;19763;55.798;37.782;2023-05-07T08:35:56;1.30;;;1.20;;
33421;SDS011;19763;55.798;37.782;2023-05-07T08:38:22;3.45;;;1.38;;
33421;SDS011;19763;55.798;37.782;2023-05-07T08:40:48;2.92;;;1.30;;
33421;SDS011;19763;55.798;37.782;2023-05-07T08:43:14;3.92;;;1.63;;
33421;SDS011;19763;55.798;37.782;2023-05-07T08:45:42;2.33;;;1.45;;
33421;SDS011;19763;55.798;37.782;2023-05-07T08:48:17;1.70;;;1.60;;
33421;SDS011;19763;55.798;37.782;2023-05-07T08:50:43;1.80;;;1.52;;
33421;SDS011;19763;55.798;37.782;2023-05-07T08:53:08;1.92;;;1.52;;
33421;SDS011;19763;55.798;37.782;2023-05-07T08:55:34;3.65;;;1.60;;
33421;SDS011;19763;55.798;37.782;2023-05-07T08:58:00;4.60;;;1.60;;
33421;SDS011;19763;55.798;37.782;2023-05-07T09:00:26;3.53;;;1.50;;
33421;SDS011;19763;55.798;37.782;2023-05-07T09:02:52;3.17;;;1.40;;
33421;SDS011;19763;55.798;37.782;2023-05-07T09:05:18;3.50;;;1.75;;
33421;SDS011;19763;55.798;37.782;2023-05-07T09:07:45;2.58;;;1.48;;
33421;SDS011;19763;55.798;37.782;2023-05-07T09:10:11;2.53;;;1.70;;
33421;SDS011;19763;55.798;37.782;2023-05-07T09:12:37;2.20;;;1.42;;
33421;SDS011;19763;55.798;37.782;2023-05-07T09:15:04;3.92;;;1.40;;
33421;SDS011;19763;55.798;37.782;2023-05-07T09:17:31;3.13;;;1.65;;
33421;SDS011;19763;55.798;37.782;2023-05-07T09:20:01;3.33;;;1.40;;
33421;SDS011;19763;55.798;37.782;2023-05-07T09:22:33;2.67;;;1.33;;
33421;SDS011;19763;55.798;37.782;2023-05-07T09:25:01;2.95;;;1.67;;
33421;SDS011;19763;55.798;37.782;2023-05-07T09:27:27;1.73;;;1.45;;
33421;SDS011;19763;55.798;37.782;2023-05-07T09:29:53;1.98;;;1.20;;
33421;SDS011;19763;55.798;37.782;2023-05-07T09:32:19;2.10;;;1.30;;
33421;SDS011;19763;55.798;37.782;2023-05-07T09:34:44;1.33;;;1.17;;
33421;SDS011;19763;55.798;37.782;2023-05-07T09:37:12;1.35;;;1.20;;
33421;SDS011;19763;55.798;37.782;2023-05-07T09:39:39;3.20;;;1.50;;
33421;SDS011;19763;55.798;37.782;2023-05-07T09:42:05;4.03;;;1.50;;
33421;SDS011;19763;55.798;37.782;2023-05-07T09:44:32;1.58;;;1.33;;
33421;SDS011;19763;55.798;37.782;2023-05-07T09:46:59;1.33;;;1.23;;
33421;SDS011;19763;55.798;37.782;2023-05-07T09:49:26;2.00;;;1.30;;
33421;SDS011;19763;55.798;37.782;2023-05-07T09:51:57;2.33;;;1.55;;
33421;SDS011;19763;55.798;37.782;2023-05-07T09:54:25;2.35;;;1.30;;
33421;SDS011;19763;55.798;37.782;2023-05-07T09:56:53;2.03;;;1.20;;
33421;SDS011;19763;55.798;37.782;2023-05-07T09:59:20;1.38;;;1.17;;
33421;SDS011;19763;55.798;37.782;2023-05-07T10:01:47;2.63;;;1.30;;
33421;SDS011;19763;55.798;37.782;2023-05-07T10:04:14;2.28;;;1.40;;
33421;SDS011;19763;55.798;37.782;2023-05-07T10:06:41;2.22;;;1.45;;
33421;SDS011;19763;55.798;37.782;2023-05-07T10:09:08;2.70;;;1.33;;
33421;SDS011;19763;55.798;37.782;2023-05-07T10:11:36;1.80;;;1.23;;
33421;SDS011;19763;55.798;37.782;2023-05-07T10:14:04;1.60;;;1.50;;
33421;SDS011;19763;55.798;37.782;2023-05-07T10:16:34;2.22;;;1.45;;
33421;SDS011;19763;55.798;37.782;2023-05-07T10:19:04;1.40;;;1.25;;
33421;SDS011;19763;55.798;37.782;2023-05-07T10:21:31;1.35;;;1.25;;
33421;SDS011;19763;55.798;37.782;2023-05-07T10:24:05;1.10;;;1.10;;
33421;SDS011;19763;55.798;37.782;2023-05-07T10:26:39;2.35;;;1.27;;
33421;SDS011;19763;55.798;37.782;2023-05-07T10:29:12;5.70;;;2.05;;
33421;SDS011;19763;55.798;37.782;2023-05-07T10:31:48;2.95;;;1.80;;
33421;SDS011;19763;55.798;37.782;2023-05-07T10:34:21;1.65;;;1.48;;
33421;SDS011;19763;55.798;37.782;2023-05-07T10:36:51;4.10;;;1.52;;
33421;SDS011;19763;55.798;37.782;2023-05-07T10:39:17;3.28;;;1.45;;
33421;SDS011;19763;55.798;37.782;2023-05-07T10:41:45;1.83;;;1.70;;
33421;SDS011;19763;55.798;37.782;2023-05-07T10:44:10;1.55;;;1.45;;
33421;SDS011;19763;55.798;37.782;2023-05-07T10:46:36;1.58;;;1.48;;
33421;SDS011;19763;55.798;37.782;2023-05-07T10:51:33;2.03;;;1.60;;
33421;SDS011;19763;55.798;37.782;2023-05-07T10:56:35;1.35;;;1.25;;
33421;SDS011;19763;55.798;37.782;2023-05-07T11:01:49;2.33;;;1.90;;
33421;SDS011;19763;55.798;37.782;2023-05-07T11:04:27;2.83;;;1.58;;
33421;SDS011;19763;55.798;37.782;2023-05-07T11:09:56;2.40;;;1.52;;
33421;SDS011;19763;55.798;37.782;2023-05-07T11:17:30;1.80;;;1.40;;
33421;SDS011;19763;55.798;37.782;2023-05-07T11:19:59;3.58;;;1.80;;
33421;SDS011;19763;55.798;37.782;2023-05-07T11:25:03;4.68;;;1.40;;
33421;SDS011;19763;55.798;37.782;2023-05-07T11:27:30;2.17;;;1.70;;
33421;SDS011;19763;55.798;37.782;2023-05-07T11:29:57;2.08;;;1.60;;
33421;SDS011;19763;55.798;37.782;2023-05-07T11:32:27;2.40;;;1.83;;
33421;SDS011;19763;55.798;37.782;2023-05-07T11:34:55;2.08;;;1.60;;
33421;SDS011;19763;55.798;37.782;2023-05-07T11:37:22;1.92;;;1.70;;
33421;SDS011;19763;55.798;37.782;2023-05-07T11:39:49;2.15;;;1.60;;
33421;SDS011;19763;55.798;37.782;2023-05-07T11:42:29;2.88;;;1.33;;
33421;SDS011;19763;55.798;37.782;2023-05-07T11:44:56;4.68;;;1.52;;
33421;SDS011;19763;55.798;37.782;2023-05-07T11:47:22;2.78;;;1.73;;
33421;SDS011;19763;55.798;37.782;2023-05-07T11:49:48;2.95;;;1.67;;
33421;SDS011;19763;55.798;37.782;2023-05-07T11:52:14;2.83;;;1.75;;
33421;SDS011;19763;55.798;37.782;2023-05-07T11:54:41;2.47;;;1.85;;
33421;SDS011;19763;55.798;37.782;2023-05-07T11:57:16;5.68;;;1.60;;
33421;SDS011;19763;55.798;37.782;2023-05-07T11:59:42;2.33;;;1.70;;
33421;SDS011;19763;55.798;37.782;2023-05-07T12:02:13;1.38;;;1.25;;
33421;SDS011;19763;55.798;37.782;2023-05-07T12:04:40;5.63;;;1.58;;
33421;SDS011;19763;55.798;37.782;2023-05-07T12:07:10;3.30;;;1.60;;
33421;SDS011;19763;55.798;37.782;2023-05-07T12:09:40;1.90;;;1.55;;
33421;SDS011;19763;55.798;37.782;2023-05-07T12:12:06;2.00;;;1.70;;
33421;SDS011;19763;55.798;37.782;2023-05-07T12:14:32;4.40;;;1.45;;
33421;SDS011;19763;55.798;37.782;2023-05-07T12:17:03;3.05;;;1.77;;
33421;SDS011;19763;55.798;37.782;2023-05-07T12:19:30;2.80;;;1.60;;
33421;SDS011;19763;55.798;37.782;2023-05-07T12:21:57;6.40;;;2.03;;
33421;SDS011;19763;55.798;37.782;2023-05-07T12:24:23;3.40;;;1.70;;
33421;SDS011;19763;55.798;37.782;2023-05-07T12:26:48;1.60;;;1.50;;
33421;SDS011;19763;55.798;37.782;2023-05-07T12:29:14;4.60;;;1.77;;
33421;SDS011;19763;55.798;37.782;2023-05-07T12:31:43;3.78;;;1.88;;
33421;SDS011;19763;55.798;37.782;2023-05-07T12:34:12;2.55;;;1.70;;
33421;SDS011;19763;55.798;37.782;2023-05-07T12:36:38;1.52;;;1.38;;
33421;SDS011;19763;55.798;37.782;2023-05-07T12:39:08;2.67;;;1.60;;
33421;SDS011;19763;55.798;37.782;2023-05-07T12:41:56;2.17;;;1.45;;
33421;SDS011;19763;55.798;37.782;2023-05-07T12:44:30;4.33;;;1.63;;
33421;SDS011;19763;55.798;37.782;2023-05-07T12:46:57;4.30;;;1.50;;
33421;SDS011;19763;55.798;37.782;2023-05-07T12:49:23;1.77;;;1.40;;
33421;SDS011;19763;55.798;37.782;2023-05-07T12:51:49;3.05;;;1.85;;
33421;SDS011;19763;55.798;37.782;2023-05-07T12:54:28;3.38;;;2.08;;
33421;SDS011;19763;55.798;37.782;2023-05-07T12:57:05;9.05;;;2.28;;
33421;SDS011;19763;55.798;37.782;2023-05-07T12:59:41;2.55;;;1.60;;
33421;SDS011;19763;55.798;37.782;2023-05-07T13:02:08;2.70;;;2.10;;
33421;SDS011;19763;55.798;37.782;2023-05-07T13:04:34;2.63;;;1.65;;
33421;SDS011;19763;55.798;37.782;2023-05-07T13:07:00;3.45;;;1.63;;
33421;SDS011;19763;55.798;37.782;2023-05-07T13:09:26;2.47;;;1.50;;
33421;SDS011;19763;55.798;37.782;2023-05-07T13:11:54;2.83;;;1.67;;
33421;SDS011;19763;55.798;37.782;2023-05-07T13:14:19;1.85;;;1.40;;
33421;SDS011;19763;55.798;37.782;2023-05-07T13:16:46;4.55;;;1.60;;
33421;SDS011;19763;55.798;37.782;2023-05-07T13:19:12;3.17;;;1.50;;
33421;SDS011;19763;55.798;37.782;2023-05-07T13:21:38;2.97;;;1.70;;
33421;SDS011;19763;55.798;37.782;2023-05-07T13:24:03;3.05;;;1.65;;
33421;SDS011;19763;55.798;37.782;2023-05-07T13:26:30;2.60;;;1.55;;
33421;SDS011;19763;55.798;37.782;2023-05-07T13:28:56;3.92;;;1.52;;
33421;SDS011;19763;55.798;37.782;2023-05-07T13:31:22;2.28;;;1.63;;
33421;SDS011;19763;55.798;37.782;2023-05-07T13:33:48;2.33;;;1.60;;
33421;SDS011;19763;55.798;37.782;2023-05-07T13:36:14;2.65;;;1.30;;
33421;SDS011;19763;55.798;37.782;2023-05-07T13:38:40;4.40;;;1.50;;
33421;SDS011;19763;55.798;37.782;2023-05-07T13:41:05;2.17;;;1.45;;
33421;SDS011;19763;55.798;37.782;2023-05-07T13:43:31;4.68;;;1.38;;
33421;SDS011;19763;55.798;37.782;2023-05-07T13:46:00;3.78;;;1.48;;
33421;SDS011;19763;55.798;37.782;2023-05-07T13:48:26;1.63;;;1.30;;
33421;SDS011;19763;55.798;37.782;2023-05-07T13:50:53;1.98;;;1.30;;
33421;SDS011;19763;55.798;37.782;2023-05-07T13:53:19;2.47;;;1.38;;
33421;SDS011;19763;55.798;37.782;2023-05-07T13:55:45;1.50;;;1.20;;
33421;SDS011;19763;55.798;37.782;2023-05-07T13:58:10;3.15;;;2.03;;
33421;SDS011;19763;55.798;37.782;2023-05-07T14:00:36;1.48;;;1.20;;
33421;SDS011;19763;55.798;37.782;2023-05-07T14:03:02;2.42;;;1.60;;
33421;SDS011;19763;55.798;37.782;2023-05-07T14:05:29;3.58;;;1.65;;
33421;SDS011;19763;55.798;37.782;2023-05-07T14:07:55;3.05;;;1.48;;
33421;SDS011;19763;55.798;37.782;2023-05-07T14:10:22;1.80;;;1.70;;
33421;SDS011;19763;55.798;37.782;2023-05-07T14:12:48;2.75;;;1.65;;
33421;SDS011;19763;55.798;37.782;2023-05-07T14:15:14;2.20;;;1.35;;
33421;SDS011;19763;55.798;37.782;2023-05-07T14:17:41;1.88;;;1.50;;
33421;SDS011;19763;55.798;37.782;2023-05-07T14:20:07;4.00;;;1.80;;
33421;SDS011;19763;55.798;37.782;2023-05-07T14:22:34;1.98;;;1.63;;
33421;SDS011;19763;55.798;37.782;2023-05-07T14:25:00;2.63;;;1.90;;
33421;SDS011;19763;55.798;37.782;2023-05-07T14:27:25;2.22;;;1.67;;
33421;SDS011;19763;55.798;37.782;2023-05-07T14:29:51;2.85;;;1.70;;
33421;SDS011;19763;55.798;37.782;2023-05-07T14:32:17;4.28;;;1.70;;
33421;SDS011;19763;55.798;37.782;2023-05-07T14:34:43;2.88;;;1.60;;
33421;SDS011;19763;55.798;37.782;2023-05-07T14:37:10;3.05;;;2.10;;
33421;SDS011;19763;55.798;37.782;2023-05-07T14:39:35;3.80;;;1.42;;
33421;SDS011;19763;55.798;37.782;2023-05-07T14:42:01;2.22;;;1.42;;
33421;SDS011;19763;55.798;37.782;2023-05-07T14:44:27;2.15;;;1.70;;
33421;SDS011;19763;55.798;37.782;2023-05-07T14:46:53;1.35;;;1.25;;
33421;SDS011;19763;55.798;37.782;2023-05-07T14:49:19;2.78;;;1.80;;
33421;SDS011;19763;55.798;37.782;2023-05-07T14:51:45;3.35;;;1.65;;